Terminal Aerodrome Forecast
Issued by NWS

Home | Current Version | Previous Version | Graphics & Text | Print | Product List | Glossary On
Versions: 1 2 3 4 5 6 7 8 9 10 11 12 13 14 15 16 17 18 19 20 21 22 23 24 25 26 27 28 29 30 31 32 33
000
FTUS43 KLOT 251700
TAFDPA
TAF
KDPA 251739Z 2518/2618 21013G20KT P6SM VCSH FEW040 SCT070 BKN120
      TEMPO 2518/2520 -RA SCT035 BKN060
     FM252000 20010G15KT P6SM FEW040 BKN060
     FM260100 19010KT P6SM VCSH OVC080
      TEMPO 2605/2609 4SM TSRA OVC040CB
     FM260900 22009KT 6SM BR BKN040
     FM261300 23007KT P6SM BKN040=

USA.gov is the U.S. government's official web portal to all federal, state and local government web resources and services.